« Back
NWS Peachtree City, Ga » Text Product » MCN Terminal Aerodrome Forecast


Printer-friendly Version
Current Version              Previous Versions:   1  2  3  4  5  6  7  8  9  

Terminal Aerodrome Forecast

107
FTUS42 KFFC 271120
TAFMCN
TAF
KMCN 271120Z 2712/2812 00000KT P6SM FEW080
      TEMPO 2712/2713 4SM BR
     FM271400 08004KT P6SM SCT050
     FM280100 00000KT P6SM SCT120=

USA.gov is the U.S. government's official web portal to all federal, state and local government web resources and services.